La Grange, AR (72352)

5:32 PM CDT on April 25, 2015 (GMT -0500)
marianna,arrkansas | | Change Station
CLOSE
Current Station
Personal Weather Station
Location: Marianna, AR
Elevation: 230 ft
Nearby Weather Stations
Active Advisory: Flood Advisory

Elev 230 ft 34.77 °N, 90.77 °W | Updated 6 minutes ago

Clear
Clear
83.8 °F
Feels Like 86 °F
N
3.7
Wind Variable Wind from SW

Today
High -- | Low -- °F
--% Chance of Precip.
Yesterday
High -- | Low -- °F
Precip. -- in
6:19 AM 7:43 PM
Waxing Crescent, 49% visible
Pressure 29.59 in
Visibility 10.0 miles
Clouds Clear
Heat Index 86 °F
Dew Point 65 °F
Humidity 53%
Rainfall 0.30 in
Snow Depth Not available.
UV 3 out of 12
Pollen 3.70 out of 12
Air Quality Not available.
Flu Activity Sporadic
METAR KUTA 252215Z AUTO 23013KT 10SM CLR 27/16 A2959 RMK AO2 LTG DSNT E

More Conditions Fewer Conditions

Pressure 29.59 in
Visibility 10.0 miles
Clouds Clear
Heat Index 86 °F
Dew Point 65 °F
Humidity 53%
Rainfall 0.30 in
Snow Depth Not available.
UV 3 out of 12
Pollen 3.70 out of 12
Air Quality Not available.
Flu Activity Sporadic
METAR KUTA 252215Z AUTO 23013KT 10SM CLR 27/16 A2959 RMK AO2 LTG DSNT E

More Conditions Fewer Conditions

10-Day Weather Forecast

Almanac

Astronomy

Apr. 25, 2015 Rise Set
Actual Time
Civil Twilight
Nautical Twilight
Astronomical Twilight
Moon
Length of Visible Light
Length of Day
Tomorrow will be .
, % of the Moon is Illuminated

Today's Extremes

State Highs State Lows

Community

WunderPhotos

Upload Photos

1,816,836 photos uploaded!

WunderBlogs® & News

Nearby

Air Quality

  Air Quality AQ Index Pollutant
Not available.

Snow Depth

Station Depth Elevation

Earthquake Activity

City Distance Mag. Time & Date
Minimum magnitude displayed is 2.5.

Coastal Water Temperatures

Place Temperature

Stations

Nearby Weather Stations

Station Location Temp. Windchill Dew Point Humidity Wind Precip. Elev Updated Type
                   
Flood Advisory
Statement as of 12:29 PM CDT on April 25, 2015

The Flood Advisory continues for
the Mississippi River at Tunica Riverpark
* until Monday April 27.
* At 11 am Saturday the stage was 40.4 feet.
* Flood stage is 41.0 feet.
* Forecast... the river will rise to near 40.8 feet Monday April 27.
* At 41.0 feet... casinos are open and unaffected. Tunica Cutoff Lake
is flooding Camp lots and Riverside Drive in Lakeview Camp. In
Arkansas, Road to Farmstead inside the levee near the southeast
corner of Lee County is flooded. Water is against the toe of the
Arkansas levee in extreme sothern Crittenden County in places and
most all the way around Midway Lake.


Lat... Lon 3491 9062 3491 9022 3480 9034 3450 9051
      3455 9059 3476 9074